createdAt,value
2022-12-23T00:04:08.910Z,5.22
2022-12-23T00:09:12.095Z,5.23
2022-12-23T00:14:33.931Z,5.23
2022-12-23T00:19:37.044Z,5.21
2022-12-23T00:24:40.047Z,5.20
2022-12-23T00:29:43.773Z,5.22
2022-12-23T00:34:46.884Z,5.24
2022-12-23T00:40:08.825Z,5.24
2022-12-23T00:45:17.572Z,5.24
2022-12-23T00:50:20.573Z,5.24
2022-12-23T00:55:23.893Z,5.24
2022-12-23T01:00:45.665Z,5.27
2022-12-23T01:05:48.739Z,5.24
2022-12-23T01:10:52.258Z,5.19
2022-12-23T01:16:01.577Z,5.17
2022-12-23T01:21:08.311Z,5.18
2022-12-23T01:26:12.197Z,5.20
2022-12-23T01:31:15.279Z,5.21
2022-12-23T01:36:19.373Z,5.18
2022-12-23T01:41:47.162Z,5.14
2022-12-23T01:46:50.578Z,5.12
2022-12-23T01:51:53.692Z,5.14
2022-12-23T01:56:57.513Z,5.15
2022-12-23T02:02:20.440Z,5.13
2022-12-23T02:07:42.745Z,5.09
2022-12-23T02:13:11.560Z,5.05
2022-12-23T02:18:36.066Z,5.01
2022-12-23T02:23:45.112Z,4.99
2022-12-23T02:29:32.259Z,4.93
2022-12-23T02:34:49.393Z,4.90
2022-12-23T02:40:38.890Z,4.86
2022-12-23T02:45:51.674Z,4.83
2022-12-23T02:50:57.726Z,4.79
2022-12-23T02:56:03.681Z,4.75
2022-12-23T03:01:08.329Z,4.72
2022-12-23T03:06:25.461Z,4.72
2022-12-23T03:11:59.023Z,4.70
2022-12-23T03:17:18.067Z,4.65
2022-12-23T03:22:40.940Z,4.62
2022-12-23T03:27:53.275Z,4.59
2022-12-23T03:33:02.939Z,4.55
2022-12-23T03:38:08.990Z,4.55
2022-12-23T03:43:26.250Z,4.51
2022-12-23T03:48:40.932Z,4.53
2022-12-23T03:53:52.408Z,4.53
2022-12-23T03:58:59.510Z,4.52
2022-12-23T04:04:23.795Z,4.50
2022-12-23T04:09:29.245Z,4.53
2022-12-23T04:14:34.261Z,4.54
2022-12-23T04:19:37.487Z,4.55
2022-12-23T04:24:40.577Z,4.56
2022-12-23T04:29:44.097Z,4.57
2022-12-23T04:34:47.117Z,4.59
2022-12-23T04:39:50.211Z,4.61
2022-12-23T04:44:53.242Z,4.65
2022-12-23T04:49:56.652Z,4.66
2022-12-23T04:54:59.752Z,4.66
2022-12-23T05:00:04.155Z,4.65
2022-12-23T05:05:07.567Z,4.65
2022-12-23T05:10:11.110Z,4.64
2022-12-23T05:15:14.123Z,4.64
2022-12-23T05:20:17.337Z,4.64
2022-12-23T05:25:20.544Z,4.60
2022-12-23T05:30:23.650Z,4.52
2022-12-23T05:35:27.947Z,4.45
2022-12-23T05:40:31.995Z,4.37
2022-12-23T05:45:36.615Z,4.36
2022-12-23T05:50:40.499Z,4.36
2022-12-23T05:55:43.495Z,4.37
2022-12-23T06:00:46.501Z,4.35
2022-12-23T06:05:52.491Z,4.34
2022-12-23T06:10:55.488Z,4.32
2022-12-23T06:15:58.500Z,4.32
2022-12-23T06:21:01.393Z,4.31
2022-12-23T06:26:04.405Z,4.32
2022-12-23T06:31:07.410Z,4.34
2022-12-23T06:36:10.729Z,4.36
2022-12-23T06:41:13.837Z,4.37
2022-12-23T06:46:16.875Z,4.39
2022-12-23T06:51:20.049Z,4.41
2022-12-23T06:56:23.154Z,4.40
2022-12-23T07:01:26.255Z,4.40
2022-12-23T07:06:29.580Z,4.40
2022-12-23T07:11:32.591Z,4.40
2022-12-23T07:16:35.640Z,4.42
2022-12-23T07:21:39.823Z,4.43
2022-12-23T07:26:42.896Z,4.44
2022-12-23T07:31:45.996Z,4.43
2022-12-23T07:36:49.048Z,4.43
2022-12-23T07:42:09.041Z,4.44
2022-12-23T07:47:15.746Z,4.45
2022-12-23T07:52:19.200Z,4.47
2022-12-23T07:57:22.171Z,4.48
2022-12-23T08:02:25.711Z,4.50
2022-12-23T08:07:29.114Z,4.55
2022-12-23T08:12:32.832Z,4.55
2022-12-23T08:17:35.841Z,4.58
2022-12-23T08:22:38.845Z,4.61
2022-12-23T08:27:41.855Z,4.64
2022-12-23T08:32:44.967Z,4.66
2022-12-23T08:37:48.068Z,4.65
2022-12-23T08:42:51.280Z,4.64
2022-12-23T08:47:54.395Z,4.62
2022-12-23T08:52:57.608Z,4.61
2022-12-23T08:58:00.597Z,4.61
2022-12-23T09:03:04.222Z,4.62
2022-12-23T09:08:07.875Z,4.65
2022-12-23T09:13:15.216Z,4.69
2022-12-23T09:18:23.179Z,4.76
2022-12-23T09:23:26.386Z,4.77
2022-12-23T09:28:29.391Z,4.75
2022-12-23T09:33:32.313Z,4.76
2022-12-23T09:38:36.200Z,4.74
2022-12-23T09:43:57.874Z,4.74
2022-12-23T09:49:13.584Z,4.74
2022-12-23T09:54:22.528Z,4.73
2022-12-23T09:59:35.360Z,4.72
2022-12-23T10:04:47.682Z,4.73
2022-12-23T10:09:53.202Z,4.72
2022-12-23T10:14:59.604Z,4.76
2022-12-23T10:20:05.578Z,4.79
2022-12-23T10:25:25.536Z,4.80
2022-12-23T10:30:57.240Z,4.85
2022-12-23T10:36:12.950Z,4.88
2022-12-23T10:41:25.237Z,4.89
2022-12-23T10:46:50.736Z,4.90
2022-12-23T10:51:59.197Z,4.93
2022-12-23T10:57:04.764Z,4.95
2022-12-23T11:02:13.761Z,4.99
2022-12-23T11:12:51.980Z,5.10
2022-12-23T11:18:15.122Z,5.13
2022-12-23T11:23:31.366Z,5.18
2022-12-23T11:28:40.940Z,5.24
2022-12-23T11:33:57.762Z,5.30
2022-12-23T11:39:14.485Z,5.35
2022-12-23T11:44:40.008Z,5.41
2022-12-23T11:49:51.934Z,5.48
2022-12-23T11:54:58.935Z,5.54
2022-12-23T12:00:06.364Z,5.57
2022-12-23T12:05:40.866Z,5.59
2022-12-23T12:10:44.788Z,5.58
2022-12-23T12:16:20.154Z,5.54
2022-12-23T12:21:31.595Z,5.50
2022-12-23T12:26:37.428Z,5.45
2022-12-23T12:31:48.648Z,5.45
2022-12-23T12:37:16.066Z,5.45
2022-12-23T12:42:32.874Z,5.42
2022-12-23T12:47:54.166Z,5.39
2022-12-23T12:53:06.529Z,5.34
2022-12-23T12:58:16.755Z,5.29
2022-12-23T13:03:57.739Z,5.25
2022-12-23T13:09:28.771Z,5.21
2022-12-23T13:15:05.767Z,5.19
2022-12-23T13:20:24.036Z,5.18
2022-12-23T13:25:40.370Z,5.16
2022-12-23T13:31:04.672Z,5.15
2022-12-23T13:36:27.186Z,5.15
2022-12-23T13:41:34.648Z,5.14
2022-12-23T13:46:54.131Z,5.09
2022-12-23T13:52:00.115Z,5.04
2022-12-23T13:57:41.898Z,5.01
2022-12-23T14:03:00.241Z,4.98
2022-12-23T14:08:20.486Z,4.95
2022-12-23T14:13:27.423Z,4.91
2022-12-23T14:18:36.235Z,4.88
2022-12-23T14:23:45.793Z,4.82
2022-12-23T14:29:04.353Z,4.75
2022-12-23T14:34:20.356Z,4.72
2022-12-23T14:39:33.024Z,4.67
2022-12-23T14:44:36.015Z,4.63
2022-12-23T14:49:44.240Z,4.57
2022-12-23T14:55:13.268Z,4.51
2022-12-23T15:00:10.631Z,4.47
2022-12-23T15:05:14.364Z,4.47
2022-12-23T15:10:22.331Z,4.50
2022-12-23T15:15:28.960Z,4.56
2022-12-23T15:20:33.204Z,4.60
2022-12-23T15:25:43.101Z,4.62
2022-12-23T15:30:56.793Z,4.64
2022-12-23T15:36:02.851Z,4.67
2022-12-23T15:41:15.052Z,4.69
2022-12-23T15:46:26.949Z,4.70
2022-12-23T15:57:01.429Z,4.79
2022-12-23T16:08:16.268Z,4.87
2022-12-23T16:13:20.980Z,4.86
2022-12-23T16:18:28.614Z,4.84
2022-12-23T16:23:36.644Z,4.83
2022-12-23T16:28:43.408Z,4.83
2022-12-23T16:33:57.409Z,4.85
2022-12-23T16:39:09.627Z,4.83
2022-12-23T16:44:12.760Z,4.78
2022-12-23T16:49:20.856Z,4.76
2022-12-23T16:54:23.975Z,4.75
2022-12-23T16:59:29.349Z,4.78
2022-12-23T17:04:32.468Z,4.80
2022-12-23T17:09:35.446Z,4.81
2022-12-23T17:14:38.974Z,4.81
2022-12-23T17:19:42.793Z,4.78
2022-12-23T17:24:45.791Z,4.73
2022-12-23T17:29:48.908Z,4.71
2022-12-23T17:34:52.012Z,4.69
2022-12-23T17:39:55.145Z,4.69
2022-12-23T17:44:58.131Z,4.67
2022-12-23T17:50:01.134Z,4.66
2022-12-23T17:55:04.304Z,4.69
2022-12-23T18:00:08.409Z,4.69
2022-12-23T18:05:32.640Z,4.68
2022-12-23T18:10:39.596Z,4.67
2022-12-23T18:15:44.452Z,4.63
2022-12-23T18:20:50.818Z,4.61
2022-12-23T18:25:54.442Z,4.57
2022-12-23T18:30:58.644Z,4.53
2022-12-23T18:36:01.734Z,4.51
2022-12-23T18:41:04.791Z,4.51
2022-12-23T18:46:08.171Z,4.50
2022-12-23T18:51:16.638Z,4.51
2022-12-23T18:56:21.362Z,4.51
2022-12-23T19:01:24.807Z,4.52
2022-12-23T19:06:28.013Z,4.53
2022-12-23T19:11:31.975Z,4.55
2022-12-23T19:16:35.011Z,4.59
2022-12-23T19:21:38.256Z,4.57
2022-12-23T19:26:41.269Z,4.55
2022-12-23T19:31:44.914Z,4.54
2022-12-23T19:36:48.307Z,4.55
2022-12-23T19:41:51.642Z,4.57
2022-12-23T19:46:54.721Z,4.58
2022-12-23T19:51:57.836Z,4.59
2022-12-23T19:57:00.745Z,4.57
2022-12-23T20:02:03.809Z,4.57
2022-12-23T20:07:07.063Z,4.57
2022-12-23T20:12:10.185Z,4.56
2022-12-23T20:17:13.171Z,4.54
2022-12-23T20:22:16.282Z,4.54
2022-12-23T20:27:25.966Z,4.53
2022-12-23T20:32:31.006Z,4.54
2022-12-23T20:37:34.002Z,4.57
2022-12-23T20:42:37.830Z,4.60
2022-12-23T20:47:41.265Z,4.60
2022-12-23T20:52:44.564Z,4.57
2022-12-23T20:57:47.576Z,4.55
2022-12-23T21:02:50.670Z,4.54
2022-12-23T21:07:53.684Z,4.53
2022-12-23T21:12:56.687Z,4.54
2022-12-23T21:17:59.900Z,4.54
2022-12-23T21:23:02.909Z,4.52
2022-12-23T21:28:05.999Z,4.37
2022-12-23T21:33:08.925Z,4.26
2022-12-23T21:38:11.922Z,4.14
2022-12-23T21:43:14.832Z,4.00
2022-12-23T21:48:17.734Z,3.93
2022-12-23T21:53:20.739Z,3.87
2022-12-23T21:58:23.744Z,3.80
2022-12-23T22:03:27.675Z,3.75
2022-12-23T22:08:30.711Z,3.75
2022-12-23T22:13:33.691Z,3.75
2022-12-23T22:18:37.253Z,3.74
2022-12-23T22:23:40.521Z,3.74
2022-12-23T22:28:43.528Z,3.69
2022-12-23T22:33:47.294Z,3.67
2022-12-23T22:38:55.681Z,3.62
2022-12-23T22:43:59.453Z,3.55
2022-12-23T22:49:02.517Z,3.55
2022-12-23T22:54:05.627Z,3.55
2022-12-23T22:59:18.259Z,3.61
2022-12-23T23:04:21.556Z,3.62
2022-12-23T23:09:24.578Z,3.54
2022-12-23T23:14:27.476Z,3.45
2022-12-23T23:19:30.592Z,3.44
2022-12-23T23:24:34.380Z,3.47
2022-12-23T23:29:37.346Z,3.45
2022-12-23T23:34:40.838Z,3.42
2022-12-23T23:39:43.953Z,3.36
2022-12-23T23:44:49.010Z,3.33
2022-12-23T23:49:52.106Z,3.32
2022-12-23T23:54:56.342Z,3.34
2022-12-23T23:59:59.357Z,3.36
